createdAt,value
2019-04-07T00:02:42.471Z,36.90
2019-04-07T00:05:35.583Z,36.20
2019-04-07T00:08:28.869Z,36.20
2019-04-07T00:11:21.552Z,36.10
2019-04-07T00:14:13.964Z,36.10
2019-04-07T00:17:06.810Z,36.20
2019-04-07T00:19:59.409Z,36.40
2019-04-07T00:22:52.297Z,36.20
2019-04-07T00:25:45.105Z,36.00
2019-04-07T00:28:37.949Z,36.00
2019-04-07T00:31:31.237Z,35.80
2019-04-07T00:34:24.071Z,35.70
2019-04-07T00:37:17.090Z,35.90
2019-04-07T00:40:10.058Z,36.00
2019-04-07T00:43:03.381Z,35.90
2019-04-07T00:45:55.933Z,35.80
2019-04-07T00:48:48.623Z,35.90
2019-04-07T00:51:41.041Z,35.80
2019-04-07T00:54:34.309Z,36.40
2019-04-07T00:57:27.489Z,36.20
2019-04-07T01:00:21.833Z,36.50
2019-04-07T01:03:14.835Z,37.00
2019-04-07T01:06:07.611Z,36.80
2019-04-07T01:09:01.100Z,36.60
2019-04-07T01:11:56.630Z,36.60
2019-04-07T01:14:49.271Z,36.70
2019-04-07T01:17:42.355Z,36.50
2019-04-07T01:20:35.040Z,36.50
2019-04-07T01:23:28.183Z,36.40
2019-04-07T01:26:21.693Z,36.30
2019-04-07T01:29:14.708Z,36.50
2019-04-07T01:32:07.145Z,36.50
2019-04-07T01:34:59.729Z,36.40
2019-04-07T01:37:52.192Z,36.30
2019-04-07T01:40:47.960Z,36.50
2019-04-07T01:43:45.742Z,36.60
2019-04-07T01:46:47.947Z,36.50
2019-04-07T01:49:59.084Z,36.50
2019-04-07T01:53:12.564Z,36.40
2019-04-07T01:56:10.775Z,36.60
2019-04-07T01:59:32.045Z,36.60
2019-04-07T02:02:42.281Z,36.60
2019-04-07T02:06:03.670Z,36.60
2019-04-07T02:09:22.573Z,36.60
2019-04-07T02:12:28.522Z,36.60
2019-04-07T02:15:32.800Z,36.70
2019-04-07T02:18:35.416Z,36.80
2019-04-07T02:21:32.748Z,36.70
2019-04-07T02:24:33.402Z,36.80
2019-04-07T02:27:43.868Z,36.80
2019-04-07T02:31:02.841Z,37.00
2019-04-07T02:34:08.066Z,36.90
2019-04-07T02:37:22.609Z,37.00
2019-04-07T02:40:34.203Z,37.00
2019-04-07T02:43:36.302Z,37.00
2019-04-07T02:46:38.274Z,37.10
2019-04-07T02:50:01.653Z,37.10
2019-04-07T02:53:11.038Z,37.20
2019-04-07T02:56:16.414Z,37.20
2019-04-07T02:59:25.643Z,37.20
2019-04-07T03:02:34.638Z,37.30
2019-04-07T03:05:58.284Z,37.30
2019-04-07T03:09:04.067Z,37.30
2019-04-07T03:12:14.886Z,37.40
2019-04-07T03:15:24.876Z,37.50
2019-04-07T03:18:31.645Z,37.50
2019-04-07T03:21:45.832Z,37.50
2019-04-07T03:24:55.203Z,37.50
2019-04-07T03:27:54.735Z,37.50
2019-04-07T03:31:17.064Z,37.50
2019-04-07T03:34:41.167Z,37.50
2019-04-07T03:37:59.080Z,37.50
2019-04-07T03:41:16.183Z,37.60
2019-04-07T03:47:11.544Z,37.80
2019-04-07T03:50:22.824Z,37.80
2019-04-07T03:53:37.859Z,38.50
2019-04-07T03:57:00.434Z,37.90
2019-04-07T04:00:10.489Z,38.10
2019-04-07T04:03:10.901Z,37.80
2019-04-07T04:09:16.363Z,37.70
2019-04-07T04:12:37.423Z,37.80
2019-04-07T04:15:34.469Z,37.60
2019-04-07T04:18:28.611Z,37.60
2019-04-07T04:21:22.089Z,37.60
2019-04-07T04:24:14.811Z,37.60
2019-04-07T04:27:08.604Z,37.60
2019-04-07T04:30:02.972Z,37.80
2019-04-07T04:32:56.119Z,37.60
2019-04-07T04:35:48.741Z,37.80
2019-04-07T04:38:41.291Z,37.50
2019-04-07T04:41:33.721Z,37.50
2019-04-07T04:44:26.791Z,37.70
2019-04-07T04:47:19.730Z,37.50
2019-04-07T04:50:12.923Z,37.70
2019-04-07T04:53:06.180Z,37.40
2019-04-07T04:55:59.055Z,37.50
2019-04-07T04:58:51.938Z,37.50
2019-04-07T05:01:44.659Z,37.40
2019-04-07T05:04:39.746Z,37.50
2019-04-07T05:07:41.941Z,37.50
2019-04-07T05:10:26.706Z,37.50
2019-04-07T05:13:19.852Z,37.50
2019-04-07T05:16:13.000Z,37.50
2019-04-07T05:19:06.172Z,37.50
2019-04-07T05:21:59.804Z,37.60
2019-04-07T05:24:52.976Z,37.70
2019-04-07T05:27:46.088Z,37.60
2019-04-07T05:30:39.163Z,37.50
2019-04-07T05:33:32.036Z,37.60
2019-04-07T05:36:25.224Z,37.80
2019-04-07T05:39:17.704Z,37.60
2019-04-07T05:42:13.476Z,37.50
2019-04-07T05:45:07.441Z,37.40
2019-04-07T05:48:00.781Z,37.70
2019-04-07T05:50:53.895Z,37.50
2019-04-07T05:53:48.325Z,37.50
2019-04-07T05:56:41.406Z,37.60
2019-04-07T05:59:33.296Z,37.60
2019-04-07T06:02:27.121Z,37.60
2019-04-07T06:05:20.196Z,37.50
2019-04-07T06:08:26.824Z,37.60
2019-04-07T06:11:07.588Z,37.50
2019-04-07T06:16:53.512Z,37.60
2019-04-07T06:19:43.580Z,37.50
2019-04-07T06:22:37.027Z,37.70
2019-04-07T06:25:36.859Z,37.50
2019-04-07T06:28:26.613Z,37.60
2019-04-07T06:31:24.245Z,37.60
2019-04-07T06:34:16.164Z,37.60
2019-04-07T06:39:59.338Z,37.50
2019-04-07T06:42:51.958Z,37.60
2019-04-07T06:46:11.821Z,37.40
2019-04-07T06:49:11.303Z,37.30
2019-04-07T06:52:34.577Z,37.50
2019-04-07T06:55:37.520Z,37.20
2019-04-07T06:58:43.947Z,37.50
2019-04-07T07:01:49.258Z,37.20
2019-04-07T07:05:04.020Z,37.10
2019-04-07T07:08:08.368Z,37.00
2019-04-07T07:11:23.160Z,36.70
2019-04-07T07:14:43.269Z,37.10
2019-04-07T07:17:52.666Z,36.80
2019-04-07T07:21:09.962Z,37.10
2019-04-07T07:24:03.371Z,36.80
2019-04-07T07:26:58.069Z,36.20
2019-04-07T07:29:52.769Z,36.20
2019-04-07T07:32:44.309Z,36.00
2019-04-07T07:35:37.626Z,36.00
2019-04-07T07:38:32.293Z,36.00
2019-04-07T07:41:25.081Z,35.90
2019-04-07T07:44:18.838Z,36.50
2019-04-07T07:47:12.028Z,36.40
2019-04-07T07:50:06.844Z,36.70
2019-04-07T07:52:58.192Z,35.90
2019-04-07T07:55:51.087Z,36.90
2019-04-07T07:58:43.963Z,36.80
2019-04-07T08:01:37.340Z,36.30
2019-04-07T08:04:30.171Z,36.20
2019-04-07T08:07:23.645Z,36.70
2019-04-07T08:10:18.637Z,36.70
2019-04-07T08:13:11.346Z,36.30
2019-04-07T08:16:04.241Z,35.50
2019-04-07T08:18:59.203Z,35.60
2019-04-07T08:21:51.930Z,36.40
2019-04-07T08:24:49.312Z,35.70
2019-04-07T08:27:39.782Z,36.00
2019-04-07T08:30:33.313Z,35.70
2019-04-07T08:33:29.549Z,35.90
2019-04-07T08:36:22.718Z,36.10
2019-04-07T08:39:22.946Z,35.90
2019-04-07T08:42:12.099Z,36.30
2019-04-07T08:45:03.555Z,35.90
2019-04-07T08:47:56.655Z,35.80
2019-04-07T08:50:49.634Z,36.10
2019-04-07T08:53:44.979Z,35.30
2019-04-07T08:56:37.764Z,35.20
2019-04-07T08:59:30.423Z,36.20
2019-04-07T09:02:25.979Z,35.10
2019-04-07T09:05:20.582Z,36.00
2019-04-07T09:08:12.237Z,35.40
2019-04-07T09:14:04.237Z,35.70
2019-04-07T09:20:36.154Z,35.50
2019-04-07T09:23:44.510Z,35.70
2019-04-07T09:26:48.355Z,35.70
2019-04-07T09:29:53.374Z,35.20
2019-04-07T09:32:53.168Z,35.40
2019-04-07T09:36:04.310Z,35.70
2019-04-07T09:39:03.856Z,35.60
2019-04-07T09:42:11.697Z,35.30
2019-04-07T09:45:32.376Z,35.50
2019-04-07T09:48:51.695Z,35.20
2019-04-07T09:52:00.983Z,35.60
2019-04-07T09:55:27.870Z,35.90
2019-04-07T09:58:41.644Z,35.60
2019-04-07T10:02:00.929Z,35.00
2019-04-07T10:05:11.128Z,35.70
2019-04-07T10:08:00.758Z,35.60
2019-04-07T10:11:10.128Z,35.70
2019-04-07T10:14:20.605Z,35.10
2019-04-07T10:17:29.698Z,35.40
2019-04-07T10:23:28.813Z,35.30
2019-04-07T10:26:39.091Z,35.50
2019-04-07T10:29:40.552Z,35.60
2019-04-07T10:32:44.172Z,35.40
2019-04-07T10:35:55.317Z,35.40
2019-04-07T10:39:12.985Z,35.60
2019-04-07T10:42:23.559Z,35.50
2019-04-07T10:45:39.357Z,35.40
2019-04-07T10:48:56.809Z,35.40
2019-04-07T10:52:16.981Z,35.60
2019-04-07T10:55:18.289Z,35.40
2019-04-07T10:58:30.192Z,35.30
2019-04-07T11:01:37.883Z,35.50
2019-04-07T11:04:47.371Z,35.20
2019-04-07T11:08:08.626Z,35.70
2019-04-07T11:11:18.049Z,35.60
2019-04-07T11:14:31.287Z,35.60
2019-04-07T11:17:43.560Z,35.60
2019-04-07T11:20:53.339Z,35.60
2019-04-07T11:23:57.823Z,35.70
2019-04-07T11:27:02.900Z,35.30
2019-04-07T11:30:34.321Z,35.60
2019-04-07T11:33:48.148Z,35.60
2019-04-07T11:37:03.137Z,35.70
2019-04-07T11:40:18.309Z,35.70
2019-04-07T11:43:27.799Z,35.70
2019-04-07T11:46:48.434Z,35.70
2019-04-07T11:49:48.434Z,35.60
2019-04-07T11:52:56.301Z,35.80
2019-04-07T11:56:09.654Z,35.40
2019-04-07T11:59:14.665Z,35.60
2019-04-07T12:02:36.380Z,35.60
2019-04-07T12:05:26.807Z,35.70
2019-04-07T12:08:41.008Z,35.60
2019-04-07T12:11:58.321Z,35.60
2019-04-07T12:15:17.453Z,35.60
2019-04-07T12:18:33.107Z,35.60
2019-04-07T12:21:49.226Z,35.60
2019-04-07T12:25:02.107Z,35.60
2019-04-07T12:28:15.859Z,35.60
2019-04-07T12:34:20.922Z,35.60
2019-04-07T12:37:22.375Z,35.70
2019-04-07T12:40:43.076Z,35.60
2019-04-07T12:43:56.516Z,35.60
2019-04-07T12:47:06.960Z,35.50
2019-04-07T12:50:35.507Z,35.70
2019-04-07T12:53:38.976Z,35.50
2019-04-07T12:57:12.201Z,35.60
2019-04-07T13:00:22.537Z,35.60
2019-04-07T13:03:31.144Z,36.30
2019-04-07T13:10:00.307Z,35.60
2019-04-07T13:13:12.419Z,35.70
2019-04-07T13:16:26.340Z,35.70
2019-04-07T13:19:41.827Z,35.70
2019-04-07T13:22:48.402Z,35.70
2019-04-07T13:26:04.025Z,35.70
2019-04-07T13:32:08.791Z,35.70
2019-04-07T13:35:38.133Z,35.70
2019-04-07T13:38:57.733Z,35.70
2019-04-07T13:42:05.307Z,35.90
2019-04-07T13:45:35.551Z,35.80
2019-04-07T13:48:41.179Z,35.70
2019-04-07T13:51:49.361Z,35.90
2019-04-07T13:55:13.024Z,35.80
2019-04-07T14:01:19.306Z,35.80
2019-04-07T14:04:47.820Z,35.90
2019-04-07T14:08:11.384Z,35.90
2019-04-07T14:14:53.783Z,35.90
2019-04-07T14:18:03.563Z,35.90
2019-04-07T14:21:13.713Z,35.90
2019-04-07T14:24:28.227Z,36.00
2019-04-07T14:27:52.607Z,36.00
2019-04-07T14:31:09.309Z,36.10
2019-04-07T14:33:58.732Z,36.10
2019-04-07T14:37:08.113Z,36.00
2019-04-07T14:40:21.408Z,36.10
2019-04-07T14:43:28.626Z,36.80
2019-04-07T14:46:43.707Z,36.10
2019-04-07T14:50:00.517Z,36.20
2019-04-07T14:53:08.905Z,36.20
2019-04-07T14:56:29.429Z,36.20
2019-04-07T14:59:56.176Z,36.20
2019-04-07T15:02:49.868Z,36.20
2019-04-07T15:05:45.088Z,36.30
2019-04-07T15:08:44.323Z,36.20
2019-04-07T15:11:44.447Z,36.30
2019-04-07T15:14:37.490Z,36.30
2019-04-07T15:17:31.869Z,36.30
2019-04-07T15:20:30.322Z,36.40
2019-04-07T15:23:25.245Z,36.30
2019-04-07T15:26:19.382Z,36.40
2019-04-07T15:29:14.662Z,36.40
2019-04-07T15:32:10.601Z,36.50
2019-04-07T15:35:04.944Z,36.40
2019-04-07T15:37:59.083Z,36.50
2019-04-07T15:41:01.174Z,36.40
2019-04-07T15:43:46.406Z,36.50
2019-04-07T15:46:42.668Z,36.50
2019-04-07T15:49:36.765Z,36.50
2019-04-07T15:52:31.671Z,36.50
2019-04-07T15:55:36.974Z,36.50
2019-04-07T15:58:19.373Z,36.50
2019-04-07T16:01:13.982Z,36.50
2019-04-07T16:04:10.049Z,36.50
2019-04-07T16:07:06.387Z,36.60
2019-04-07T16:10:00.375Z,36.50
2019-04-07T16:12:59.825Z,36.50
2019-04-07T16:15:54.941Z,36.60
2019-04-07T16:18:48.557Z,36.80
2019-04-07T16:21:42.997Z,36.60
2019-04-07T16:24:37.241Z,36.70
2019-04-07T16:27:30.462Z,36.60
2019-04-07T16:30:23.386Z,36.70
2019-04-07T16:33:18.036Z,36.70
2019-04-07T16:36:11.259Z,36.80
2019-04-07T16:39:04.337Z,36.70
2019-04-07T16:41:58.007Z,36.80
2019-04-07T16:47:47.729Z,36.70
2019-04-07T16:50:51.115Z,36.80
2019-04-07T16:53:42.975Z,36.70
2019-04-07T16:56:36.652Z,36.80
2019-04-07T16:59:30.605Z,36.80
2019-04-07T17:02:24.096Z,36.80
2019-04-07T17:05:21.395Z,36.80
2019-04-07T17:08:17.741Z,36.80
2019-04-07T17:11:08.280Z,36.80
2019-04-07T17:14:22.566Z,36.80
2019-04-07T17:17:19.063Z,36.80
2019-04-07T17:20:10.372Z,36.90
2019-04-07T17:23:03.869Z,36.80
2019-04-07T17:25:57.010Z,36.80
2019-04-07T17:28:50.946Z,36.90
2019-04-07T17:31:45.526Z,36.80
2019-04-07T17:34:41.750Z,36.90
2019-04-07T17:37:38.020Z,36.90
2019-04-07T17:40:33.435Z,36.90
2019-04-07T17:43:48.931Z,36.90
2019-04-07T17:47:03.018Z,36.90
2019-04-07T17:50:26.029Z,36.90
2019-04-07T17:53:29.638Z,36.90
2019-04-07T17:56:32.541Z,36.90
2019-04-07T17:59:52.080Z,36.90
2019-04-07T18:02:57.176Z,37.00
2019-04-07T18:06:16.877Z,37.00
2019-04-07T18:12:14.357Z,37.10
2019-04-07T18:15:19.611Z,37.00
2019-04-07T18:18:30.402Z,37.00
2019-04-07T18:21:51.996Z,37.00
2019-04-07T18:24:59.607Z,37.00
2019-04-07T18:28:05.533Z,37.00
2019-04-07T18:31:08.043Z,37.00
2019-04-07T18:34:25.127Z,37.10
2019-04-07T18:37:38.831Z,37.10
2019-04-07T18:40:50.623Z,37.10
2019-04-07T18:44:01.807Z,37.10
2019-04-07T18:47:10.949Z,37.10
2019-04-07T18:50:21.929Z,37.10
2019-04-07T18:53:36.237Z,37.10
2019-04-07T18:56:45.294Z,37.20
2019-04-07T19:00:04.317Z,37.10
2019-04-07T19:03:24.384Z,37.10
2019-04-07T19:06:25.866Z,37.20
2019-04-07T19:09:42.602Z,37.20
2019-04-07T19:12:49.257Z,37.10
2019-04-07T19:16:01.848Z,37.10
2019-04-07T19:19:25.653Z,36.90
2019-04-07T19:22:43.312Z,36.80
2019-04-07T19:26:09.753Z,36.80
2019-04-07T19:29:42.552Z,36.70
2019-04-07T19:32:48.518Z,36.70
2019-04-07T19:38:54.298Z,36.70
2019-04-07T19:42:04.636Z,36.70
2019-04-07T19:45:15.742Z,36.80
2019-04-07T19:48:29.371Z,36.80
2019-04-07T19:51:46.740Z,36.80
2019-04-07T19:54:52.982Z,36.80
2019-04-07T19:58:03.023Z,36.80
2019-04-07T20:01:15.115Z,36.80
2019-04-07T20:04:26.142Z,36.80
2019-04-07T20:07:39.710Z,36.90
2019-04-07T20:10:49.882Z,36.90
2019-04-07T20:13:55.849Z,36.90
2019-04-07T20:17:08.504Z,36.90
2019-04-07T20:20:19.476Z,36.90
2019-04-07T20:23:19.987Z,36.80
2019-04-07T20:26:29.202Z,36.90
2019-04-07T20:29:43.207Z,36.90
2019-04-07T20:33:00.423Z,37.10
2019-04-07T20:36:17.664Z,37.10
2019-04-07T20:39:17.171Z,37.10
2019-04-07T20:42:20.017Z,37.10
2019-04-07T20:45:31.079Z,37.20
2019-04-07T20:48:41.860Z,37.10
2019-04-07T20:51:58.529Z,37.10
2019-04-07T20:55:22.054Z,37.00
2019-04-07T20:58:44.771Z,37.10
2019-04-07T21:01:58.732Z,37.10
2019-04-07T21:05:06.743Z,37.70
2019-04-07T21:08:16.794Z,37.00
2019-04-07T21:11:20.249Z,37.00
2019-04-07T21:14:22.833Z,37.00
2019-04-07T21:17:31.603Z,37.00
2019-04-07T21:20:42.829Z,37.00
2019-04-07T21:23:55.233Z,37.00
2019-04-07T21:27:01.195Z,37.00
2019-04-07T21:30:14.706Z,37.20
2019-04-07T21:33:32.664Z,37.00
2019-04-07T21:36:46.355Z,37.00
2019-04-07T21:39:59.955Z,37.00
2019-04-07T21:43:00.514Z,37.10
2019-04-07T21:46:11.662Z,37.10
2019-04-07T21:49:27.877Z,37.10
2019-04-07T21:52:54.742Z,37.00
2019-04-07T21:55:52.167Z,37.10
2019-04-07T21:59:21.397Z,37.10
2019-04-07T22:02:34.708Z,37.10
2019-04-07T22:05:34.923Z,37.00
2019-04-07T22:08:35.155Z,36.90
2019-04-07T22:11:29.318Z,37.10
2019-04-07T22:14:21.153Z,36.90
2019-04-07T22:17:13.867Z,36.90
2019-04-07T22:20:06.895Z,37.00
2019-04-07T22:23:02.275Z,37.20
2019-04-07T22:25:57.048Z,37.10
2019-04-07T22:28:49.731Z,37.00
2019-04-07T22:31:52.137Z,37.00
2019-04-07T22:34:46.116Z,37.20
2019-04-07T22:37:39.790Z,37.10
2019-04-07T22:40:34.226Z,37.10
2019-04-07T22:43:26.744Z,37.10
2019-04-07T22:46:23.498Z,37.20
2019-04-07T22:49:13.558Z,37.20
2019-04-07T22:52:07.547Z,37.30
2019-04-07T22:55:03.638Z,37.30
2019-04-07T22:57:53.967Z,37.30
2019-04-07T23:00:46.719Z,37.40
2019-04-07T23:03:39.352Z,37.50
2019-04-07T23:06:32.809Z,37.50
2019-04-07T23:09:25.343Z,37.40
2019-04-07T23:12:18.913Z,37.40
2019-04-07T23:15:11.775Z,37.40
2019-04-07T23:18:05.358Z,37.50
2019-04-07T23:20:58.191Z,37.50
2019-04-07T23:23:51.425Z,37.60
2019-04-07T23:26:44.653Z,37.50
2019-04-07T23:29:37.146Z,37.50
2019-04-07T23:32:31.166Z,37.60
2019-04-07T23:35:24.412Z,37.60
2019-04-07T23:38:17.144Z,37.70
2019-04-07T23:41:09.857Z,37.70
2019-04-07T23:44:03.053Z,37.70
2019-04-07T23:46:55.721Z,37.70
2019-04-07T23:49:48.753Z,37.70
2019-04-07T23:52:41.459Z,37.80
2019-04-07T23:55:34.171Z,37.70
2019-04-07T23:58:27.321Z,37.70
